עמוד ראשי
METAR-TAF:

METAR-TAF

שדות תעופה :

יונאגוני, יפן

קו רוחב: 24-28N, קו אורך: 122-59E, גובה: 16מטר

תצפית מזג אוויר נוכחית

הדו"ח נערך לפני 37דקות, בשעה 20:00 UTC
רוח 10קשר מכיוון דרום
טמפרטורת 30 צלסיוס
לחות 79%
לחץ 1010 hPa
ראות 10 קילומטר או יותר
מעט עננים בגובה 1900רגל

METAR: ROYN 172000Z AUTO 19010KT 9999 FEW019 30/26 Q1010

זמן: 05:37 (20:37 UTC)


TAF: חסר

תצפיות ותחזיות מזג אוויר לגבי יותר מ- 4,000 שדות תעופה ברחבי העולם. דוחות METAR ו- TAF.

התחנות הזמינות מסומנות בנקודות צהובות ואדומות על גבי המפה.

העבר את העכבר לנקודה הצבעונית על מנת לראות את שם התחנה.

לאחר מכן, לחץ כדי לראות את תוכן ואת תחזיות מזג האוויר.

כדי לשנות את המפה: לחץ על הכפתורים הירוקים עם הפלוס השחור כדי להתקרב; על הכפתור הירוק עם המקף כדי להתרחק; או בחיצים הירוקים למפות סמוכות.


METAR-TAF: